Etusivu
METAR-TAF:

METAR-TAF

Lentoasemat :

Del Rio International Airport

Del Rio, Texas, Yhdysvallat

Leveyspiiri: 29-22-29N, Pituuspiiri: 100-55-25W, korkeus merenpinnasta: 304 m

Tämänhetkinen sää

Tämä raportti tehtiin 46 minuuttia sitten, kello 15.53 UTC
Lämpötila 16°C
Kosteus 55%
Ilmanpaine 1028 hPa
Näkyvyys: 16.1 km
selkeää

METAR: KDRT 301553Z AUTO 10SM CLR 16/07 A3035 RMK AO2 SLP269 T01610067 TSNO

Aika: 11:39 (16:39 UTC)

Sääennuste

Tämä raportti tehtiin 5 tuntia ja 19 minuuttia sitten, kello 11.20 UTC
Ennuste voimassa 30. päivästä klo 12 UTC - 31. päivään klo 12 UTC
Tuuli 3 kn eri suunnista
Näkyvyys: 10 km
selkeää
From 30. päivästä klo 1600 UTC
Tuuli 8 kn kaakosta
Näkyvyys: 10 km
selkeää

TAF: KDRT 301120Z 3012/3112 VRB03KT P6SM SKC FM301600 13008KT P6SM SKC

Säähavainnot ja -ennusteet yli 4000 lentoasemalta (METAR- ja TAF-raportit).

Käytössä olevat sääasemat on merkitty karttaan keltaisilla ja punaisilla pisteillä.

Aseta hiiri pisteen päälle nähdäksesi sääaseman nimen.

Klikkaa sitten nähdäksesi säähavainnot ja -ennusteet.

Kartan vaihtaminen: klikkaa mustalla rastilla varustettuja vihreitä pisteitä, niin voit zoomata sisään; viivalla varustettua vihreää pistettä, niin voit zoomata ulos tai vihreitä nuolia, niin pääset viereisille kartoille.


METAR-TAF: